Time;durP1;ratioP1;P1;durP2;ratioP2;P2;SDS_P1;SDS_P2;PMS_P1;PMS_P2;Temp;Humidity;BMP_temperature;BMP_pressure;BME280_temperature;BME280_humidity;BME280_pressure;Samples;Min_cycle;Max_cycle;Signal;HPM_P1;HPM_P2
2023/06/19 00:01:46;;;;;;;12.30;11.20;;;23.60;41.30;;;;;;5074689;28;20204;-54
2023/06/19 00:04:12;;;;;;;10.63;9.73;;;23.60;41.20;;;;;;5074141;28;20497;-57
2023/06/19 00:06:38;;;;;;;11.27;10.27;;;23.50;41.20;;;;;;5074043;28;20175;-55
2023/06/19 00:09:03;;;;;;;11.87;10.83;;;23.40;41.00;;;;;;5074030;28;20267;-54
2023/06/19 00:11:29;;;;;;;12.77;11.53;;;23.40;41.20;;;;;;5073981;28;20526;-56
2023/06/19 00:13:55;;;;;;;12.53;11.40;;;23.40;41.30;;;;;;5073949;28;20683;-55
2023/06/19 00:16:24;;;;;;;12.47;11.37;;;23.40;41.10;;;;;;5073943;28;20441;-55
2023/06/19 00:18:51;;;;;;;11.77;10.80;;;23.30;41.10;;;;;;5074156;28;20556;-58
2023/06/19 00:21:17;;;;;;;13.53;12.33;;;23.30;41.40;;;;;;5073581;28;20751;-56
2023/06/19 00:23:43;;;;;;;12.43;11.23;;;23.30;41.40;;;;;;5073788;28;20530;-53
2023/06/19 00:26:08;;;;;;;12.43;11.30;;;23.30;41.50;;;;;;5073995;28;20499;-56
2023/06/19 00:28:34;;;;;;;12.70;11.60;;;23.20;41.50;;;;;;5073799;28;20196;-55
2023/06/19 00:31:00;;;;;;;12.70;11.50;;;23.20;41.50;;;;;;5073491;28;20255;-57
2023/06/19 00:33:26;;;;;;;12.53;11.33;;;23.10;41.70;;;;;;5072932;28;20233;-56
2023/06/19 00:35:52;;;;;;;12.00;10.90;;;23.10;41.70;;;;;;5073465;28;20181;-55
2023/06/19 00:38:17;;;;;;;11.80;10.73;;;23.10;42.60;;;;;;5073718;28;20192;-56
2023/06/19 00:40:43;;;;;;;13.47;12.10;;;23.10;42.00;;;;;;5073454;28;20914;-58
2023/06/19 00:43:09;;;;;;;12.43;11.30;;;23.10;42.10;;;;;;5073551;28;20201;-56
2023/06/19 00:45:36;;;;;;;13.33;12.03;;;23.00;42.20;;;;;;5073422;28;21103;-55
2023/06/19 00:48:03;;;;;;;12.17;11.17;;;23.00;42.30;;;;;;5073402;28;20426;-55
2023/06/19 00:50:30;;;;;;;13.67;12.33;;;22.90;42.40;;;;;;5073029;28;20402;-55
2023/06/19 00:52:57;;;;;;;12.37;11.27;;;22.80;42.40;;;;;;5073516;28;20452;-57
2023/06/19 00:55:28;;;;;;;12.17;10.97;;;22.80;42.30;;;;;;5073441;28;20426;-58
2023/06/19 00:57:54;;;;;;;11.77;10.77;;;22.80;42.60;;;;;;5073086;28;20434;-55
2023/06/19 01:00:20;;;;;;;13.87;12.57;;;22.80;42.60;;;;;;5073109;28;20403;-54
2023/06/19 01:02:47;;;;;;;11.83;10.67;;;22.80;42.60;;;;;;5073210;28;20417;-55
2023/06/19 01:05:13;;;;;;;12.53;11.57;;;22.80;42.60;;;;;;5072970;28;20193;-56
2023/06/19 01:07:48;;;;;;;13.07;11.97;;;22.80;42.60;;;;;;5073146;28;20490;-57
2023/06/19 01:10:26;;;;;;;12.63;11.63;;;22.80;42.70;;;;;;5072753;28;20441;-55
2023/06/19 01:13:07;;;;;;;13.93;12.50;;;22.70;42.80;;;;;;5072987;28;20511;-59
2023/06/19 01:15:35;;;;;;;10.73;9.83;;;22.60;42.50;;;;;;5072902;28;20402;-55
2023/06/19 01:18:02;;;;;;;14.10;12.80;;;22.60;42.60;;;;;;5072874;28;20427;-56
2023/06/19 01:20:29;;;;;;;11.80;10.70;;;22.60;42.60;;;;;;5072739;28;20402;-58
2023/06/19 01:22:56;;;;;;;12.73;11.63;;;22.60;42.70;;;;;;5072855;28;20421;-54
2023/06/19 01:25:23;;;;;;;13.00;11.80;;;22.60;42.80;;;;;;5072587;28;20406;-56
2023/06/19 01:27:50;;;;;;;13.20;11.83;;;22.50;42.80;;;;;;5072409;28;20418;-58
2023/06/19 01:30:16;;;;;;;13.07;11.80;;;22.50;42.90;;;;;;5072515;28;20810;-57
2023/06/19 01:32:56;;;;;;;12.13;11.13;;;22.50;42.90;;;;;;5072678;28;20410;-55
2023/06/19 01:35:27;;;;;;;11.03;10.03;;;22.40;42.80;;;;;;5072417;28;20457;-58
2023/06/19 01:37:53;;;;;;;12.87;11.63;;;22.30;42.90;;;;;;5072648;28;20796;-58
2023/06/19 01:40:25;;;;;;;11.60;10.47;;;22.30;43.00;;;;;;5072131;28;20454;-56
2023/06/19 01:42:52;;;;;;;12.23;11.20;;;22.20;43.20;;;;;;5072466;28;20406;-55
2023/06/19 01:45:18;;;;;;;12.73;11.70;;;22.20;43.20;;;;;;5072123;28;20973;-57
2023/06/19 01:47:44;;;;;;;11.60;10.60;;;22.20;43.20;;;;;;5072038;28;20863;-54
2023/06/19 01:50:11;;;;;;;13.50;12.13;;;22.20;43.30;;;;;;5071980;28;20505;-58
2023/06/19 01:52:38;;;;;;;13.60;12.43;;;22.20;43.20;;;;;;5072278;28;20165;-55
2023/06/19 01:55:05;;;;;;;12.13;11.03;;;22.20;43.20;;;;;;5072169;28;20804;-57
2023/06/19 01:57:31;;;;;;;14.87;13.47;;;22.20;43.50;;;;;;5072131;28;20407;-56
2023/06/19 01:59:57;;;;;;;13.10;12.10;;;22.10;43.40;;;;;;5072090;28;20403;-56
2023/06/19 02:02:23;;;;;;;13.57;12.30;;;22.00;43.30;;;;;;5072145;28;20399;-58
2023/06/19 02:04:49;;;;;;;12.67;11.57;;;22.00;43.50;;;;;;5072252;28;20203;-55
2023/06/19 02:07:14;;;;;;;12.87;11.70;;;22.00;43.30;;;;;;5072083;28;20537;-57
2023/06/19 02:09:41;;;;;;;13.47;12.20;;;22.00;43.40;;;;;;5071773;28;20199;-56
2023/06/19 02:12:08;;;;;;;13.33;12.13;;;21.90;43.40;;;;;;5072108;28;20188;-55
2023/06/19 02:14:33;;;;;;;13.83;12.50;;;21.90;43.30;;;;;;5072185;28;20433;-55
2023/06/19 02:16:59;;;;;;;14.87;13.37;;;21.90;43.40;;;;;;5071963;28;20395;-58
2023/06/19 02:19:25;;;;;;;13.53;12.33;;;21.80;43.40;;;;;;5071926;28;20192;-58
2023/06/19 02:21:50;;;;;;;14.03;12.90;;;21.80;43.50;;;;;;5071988;28;20169;-55
2023/06/19 02:24:16;;;;;;;13.43;12.27;;;21.70;43.50;;;;;;5071733;28;20565;-55
2023/06/19 02:26:43;;;;;;;14.40;13.20;;;21.70;43.70;;;;;;5071842;28;20229;-57
2023/06/19 02:29:09;;;;;;;14.10;12.73;;;21.60;43.60;;;;;;5071683;28;20210;-57
2023/06/19 02:31:35;;;;;;;14.43;13.03;;;21.60;43.50;;;;;;5071879;28;20411;-56
2023/06/19 02:34:01;;;;;;;14.43;13.13;;;21.60;43.50;;;;;;5071736;28;20763;-59
2023/06/19 02:36:27;;;;;;;14.23;12.93;;;21.60;43.60;;;;;;5071794;28;20169;-54
2023/06/19 02:38:52;;;;;;;13.90;12.13;;;21.60;43.70;;;;;;5071848;28;20211;-54
2023/06/19 02:41:18;;;;;;;14.47;13.20;;;21.50;43.80;;;;;;5071493;28;20775;-57
2023/06/19 02:43:49;;;;;;;14.50;13.30;;;21.50;43.80;;;;;;5071675;28;20228;-55
2023/06/19 02:46:14;;;;;;;14.43;13.17;;;21.50;43.80;;;;;;5071755;28;20153;-57
2023/06/19 02:48:40;;;;;;;13.90;12.57;;;21.50;44.00;;;;;;5071682;28;20799;-59
2023/06/19 02:51:06;;;;;;;15.10;13.67;;;21.40;44.10;;;;;;5071313;28;20172;-54
2023/06/19 02:53:32;;;;;;;14.90;13.50;;;21.40;44.20;;;;;;5071609;28;20180;-55
2023/06/19 02:55:58;;;;;;;13.90;12.57;;;21.40;44.30;;;;;;5071588;28;20464;-55
2023/06/19 02:58:23;;;;;;;15.03;13.73;;;21.40;44.40;;;;;;5072991;28;20241;-55
2023/06/19 03:00:49;;;;;;;14.73;13.20;;;21.40;44.30;;;;;;5075434;28;20407;-54
2023/06/19 03:03:15;;;;;;;15.07;13.70;;;21.40;44.70;;;;;;5075272;28;20580;-57
2023/06/19 03:05:41;;;;;;;13.73;12.50;;;21.30;44.60;;;;;;5075205;28;20183;-57
2023/06/19 03:08:07;;;;;;;13.80;12.60;;;21.40;44.70;;;;;;5075184;28;20422;-55
2023/06/19 03:10:32;;;;;;;14.23;12.83;;;21.50;44.80;;;;;;5075196;28;20179;-57
2023/06/19 03:12:58;;;;;;;14.20;13.00;;;21.50;44.70;;;;;;5075065;28;20193;-57
2023/06/19 03:15:25;;;;;;;14.57;13.27;;;21.60;44.70;;;;;;5075120;28;20259;-54
2023/06/19 03:17:52;;;;;;;13.53;12.23;;;21.60;44.70;;;;;;5075071;28;20434;-56
2023/06/19 03:20:17;;;;;;;13.63;12.33;;;21.60;44.80;;;;;;5073464;28;20422;-57
2023/06/19 03:22:43;;;;;;;12.60;11.50;;;21.50;44.90;;;;;;5075055;28;20402;-53
2023/06/19 03:25:09;;;;;;;14.97;13.50;;;21.60;45.00;;;;;;5075200;28;20672;-55
2023/06/19 03:27:36;;;;;;;13.90;12.63;;;21.50;45.40;;;;;;5074869;28;20164;-57
2023/06/19 03:30:06;;;;;;;12.70;11.40;;;21.60;45.40;;;;;;5074768;28;20161;-55
2023/06/19 03:32:33;;;;;;;14.73;13.43;;;21.60;45.40;;;;;;5074819;28;20407;-56
2023/06/19 03:34:58;;;;;;;15.07;12.83;;;21.60;45.60;;;;;;5074741;28;20926;-57
2023/06/19 03:37:24;;;;;;;14.47;13.00;;;21.60;45.80;;;;;;5075038;28;20419;-55
2023/06/19 03:39:50;;;;;;;13.87;12.57;;;21.60;45.90;;;;;;5074706;28;20250;-54
2023/06/19 03:42:16;;;;;;;14.07;12.77;;;21.70;46.00;;;;;;5074839;28;20179;-57
2023/06/19 03:44:41;;;;;;;14.60;13.37;;;21.80;45.70;;;;;;5074722;28;20196;-55
2023/06/19 03:47:07;;;;;;;13.90;12.70;;;21.80;45.60;;;;;;5074647;28;20290;-54
2023/06/19 03:49:33;;;;;;;13.37;12.17;;;21.80;45.60;;;;;;5074124;28;20195;-54
2023/06/19 03:51:58;;;;;;;13.77;12.50;;;21.90;45.60;;;;;;5074479;28;20167;-56
2023/06/19 03:54:26;;;;;;;13.93;12.73;;;21.90;45.60;;;;;;5074460;28;20180;-56
2023/06/19 03:56:52;;;;;;;13.27;12.07;;;21.90;45.70;;;;;;5074574;28;20176;-55
2023/06/19 03:59:18;;;;;;;13.77;12.47;;;21.90;45.40;;;;;;5074103;28;20427;-56
2023/06/19 04:01:43;;;;;;;14.10;12.80;;;21.90;45.40;;;;;;5074378;28;20403;-56
2023/06/19 04:04:09;;;;;;;14.77;13.07;;;21.80;45.20;;;;;;5074424;28;20451;-57
2023/06/19 04:06:35;;;;;;;12.83;11.70;;;21.90;45.40;;;;;;5074189;28;20263;-55
2023/06/19 04:09:01;;;;;;;14.70;13.30;;;21.90;45.40;;;;;;5073648;28;20419;-55
2023/06/19 04:11:27;;;;;;;13.27;11.97;;;22.00;45.40;;;;;;5074266;28;20169;-56
2023/06/19 04:13:52;;;;;;;14.50;13.10;;;21.90;45.50;;;;;;5074006;28;20427;-56
2023/06/19 04:16:18;;;;;;;13.50;12.40;;;22.00;45.60;;;;;;5073984;28;20176;-54
2023/06/19 04:18:44;;;;;;;13.30;12.00;;;22.00;45.60;;;;;;5073716;28;20273;-58
2023/06/19 04:21:09;;;;;;;13.77;12.47;;;22.00;45.50;;;;;;5073852;28;20176;-55
2023/06/19 04:23:35;;;;;;;14.50;13.13;;;22.10;45.70;;;;;;5074095;28;20203;-56
2023/06/19 04:26:02;;;;;;;12.90;11.67;;;22.10;45.70;;;;;;5073921;28;20510;-57
2023/06/19 04:28:27;;;;;;;14.10;12.60;;;22.20;45.60;;;;;;5074116;28;20271;-55
2023/06/19 04:31:00;;;;;;;13.77;12.33;;;22.20;45.80;;;;;;5073505;28;20494;-57
2023/06/19 04:33:28;;;;;;;14.03;12.63;;;22.40;46.00;;;;;;5073723;28;20177;-56
2023/06/19 04:35:54;;;;;;;14.53;13.13;;;22.50;45.80;;;;;;5073664;28;20494;-56
2023/06/19 04:38:23;;;;;;;15.13;13.73;;;22.60;45.40;;;;;;5073604;28;20505;-57
2023/06/19 04:40:50;;;;;;;14.70;13.30;;;22.70;44.80;;;;;;5073456;28;20183;-55
2023/06/19 04:43:16;;;;;;;14.03;12.73;;;22.80;43.90;;;;;;5073765;28;20500;-54
2023/06/19 04:45:42;;;;;;;13.40;11.80;;;22.80;43.60;;;;;;5073274;28;20403;-59
2023/06/19 04:48:08;;;;;;;13.80;12.47;;;22.80;43.90;;;;;;5073663;28;20272;-55
2023/06/19 04:50:34;;;;;;;13.33;12.13;;;22.90;44.00;;;;;;5073328;28;20485;-56
2023/06/19 04:52:59;;;;;;;13.67;12.47;;;22.90;43.80;;;;;;5073313;28;20230;-56
2023/06/19 04:55:25;;;;;;;14.70;13.30;;;22.90;43.90;;;;;;5072118;28;20429;-55
2023/06/19 04:57:51;;;;;;;13.83;12.50;;;23.00;44.00;;;;;;5073143;28;20192;-57
2023/06/19 05:00:19;;;;;;;13.27;11.80;;;23.00;43.90;;;;;;5072842;28;20169;-57
2023/06/19 05:02:47;;;;;;;16.17;13.23;;;23.10;43.70;;;;;;5073137;28;20164;-55
2023/06/19 05:05:13;;;;;;;13.53;12.23;;;23.20;43.30;;;;;;5071772;28;20454;-53
2023/06/19 05:07:39;;;;;;;15.60;12.70;;;23.20;43.20;;;;;;5073031;28;20893;-58
2023/06/19 05:10:06;;;;;;;13.97;12.77;;;23.30;43.20;;;;;;5072939;28;20405;-59
2023/06/19 05:12:32;;;;;;;12.50;11.20;;;23.30;43.60;;;;;;5073082;28;20925;-56
2023/06/19 05:14:58;;;;;;;12.90;11.90;;;23.30;43.90;;;;;;5072788;28;20767;-55
2023/06/19 05:17:24;;;;;;;11.50;10.23;;;23.30;43.60;;;;;;5073162;28;20484;-58
2023/06/19 05:19:50;;;;;;;11.43;10.43;;;23.40;43.30;;;;;;5072704;28;20514;-55
2023/06/19 05:22:18;;;;;;;14.30;12.80;;;23.40;43.00;;;;;;5072069;28;20240;-58
2023/06/19 05:24:44;;;;;;;11.33;10.23;;;23.50;43.10;;;;;;5072589;28;20454;-56
2023/06/19 05:27:10;;;;;;;12.63;11.43;;;23.50;42.80;;;;;;5072694;28;20403;-55
2023/06/19 05:29:36;;;;;;;13.57;12.37;;;23.60;42.80;;;;;;5072375;28;20526;-58
2023/06/19 05:32:02;;;;;;;13.53;12.23;;;23.60;43.00;;;;;;5071391;28;20171;-55
2023/06/19 05:34:28;;;;;;;13.07;11.77;;;23.60;43.60;;;;;;5072640;28;20192;-55
2023/06/19 05:36:53;;;;;;;11.93;10.73;;;23.60;43.00;;;;;;5072628;28;20438;-57
2023/06/19 05:39:19;;;;;;;15.07;12.90;;;23.70;42.80;;;;;;5072625;28;20188;-55
2023/06/19 05:41:48;;;;;;;13.13;11.83;;;23.70;42.90;;;;;;5072393;28;20176;-57
2023/06/19 05:44:16;;;;;;;12.57;11.37;;;23.80;43.10;;;;;;5072257;28;20201;-55
2023/06/19 05:46:42;;;;;;;12.87;11.67;;;23.80;42.90;;;;;;5072570;28;20588;-57
2023/06/19 05:49:08;;;;;;;12.37;10.23;;;23.90;42.40;;;;;;5072379;28;20430;-58
2023/06/19 05:51:34;;;;;;;13.70;12.30;;;24.00;42.10;;;;;;5072264;28;20907;-55
2023/06/19 05:54:03;;;;;;;12.60;11.50;;;24.00;42.40;;;;;;5072364;28;20506;-57
2023/06/19 05:56:30;;;;;;;13.63;12.33;;;24.00;42.90;;;;;;5072363;28;20215;-56
2023/06/19 05:58:56;;;;;;;12.83;11.67;;;24.00;42.50;;;;;;5071172;28;20446;-56
2023/06/19 06:01:22;;;;;;;13.27;12.07;;;24.10;42.30;;;;;;5072018;28;20434;-55
2023/06/19 06:03:47;;;;;;;11.63;10.53;;;24.10;42.40;;;;;;5071996;28;20200;-55
2023/06/19 06:06:13;;;;;;;12.80;11.73;;;24.10;42.00;;;;;;5072057;28;20167;-55
2023/06/19 06:08:39;;;;;;;13.60;12.40;;;24.20;41.90;;;;;;5072085;28;20188;-55
2023/06/19 06:11:04;;;;;;;12.90;11.60;;;24.20;41.90;;;;;;5071791;28;20534;-55
2023/06/19 06:13:30;;;;;;;12.37;11.27;;;24.20;42.10;;;;;;5071925;28;20620;-57
2023/06/19 06:15:56;;;;;;;12.50;11.30;;;24.30;42.10;;;;;;5072060;28;20169;-57
2023/06/19 06:18:22;;;;;;;17.00;13.70;;;24.30;41.90;;;;;;5071927;28;20188;-57
2023/06/19 06:20:48;;;;;;;13.13;11.83;;;24.40;42.40;;;;;;5071781;28;20225;-57
2023/06/19 06:23:14;;;;;;;13.10;11.33;;;24.40;42.20;;;;;;5071871;28;20201;-55
2023/06/19 06:25:39;;;;;;;14.27;12.83;;;24.40;42.10;;;;;;5071814;28;20700;-57
2023/06/19 06:28:05;;;;;;;12.13;10.93;;;24.50;42.30;;;;;;5070521;28;20459;-57
2023/06/19 06:30:31;;;;;;;13.97;12.60;;;24.50;42.20;;;;;;5071931;28;20671;-54
2023/06/19 06:32:58;;;;;;;13.23;11.90;;;24.60;42.50;;;;;;5074148;28;20167;-58
2023/06/19 06:35:23;;;;;;;12.60;11.40;;;24.70;42.10;;;;;;5076212;28;20679;-56
2023/06/19 06:37:49;;;;;;;12.23;11.10;;;24.70;41.80;;;;;;5074690;28;20763;-56
2023/06/19 06:40:15;;;;;;;12.63;11.53;;;24.70;42.00;;;;;;5075555;28;20173;-55
2023/06/19 06:42:41;;;;;;;13.97;12.43;;;24.80;41.70;;;;;;5074501;28;20415;-56
2023/06/19 06:45:08;;;;;;;12.03;10.93;;;24.80;41.80;;;;;;5075719;28;20508;-54
2023/06/19 06:47:34;;;;;;;11.93;10.80;;;24.90;41.70;;;;;;5075677;28;20169;-54
2023/06/19 06:50:00;;;;;;;13.00;11.70;;;24.90;41.60;;;;;;5074158;28;20410;-56
2023/06/19 06:52:27;;;;;;;12.40;10.90;;;24.90;42.20;;;;;;5075750;28;20406;-58
2023/06/19 06:54:53;;;;;;;13.53;12.17;;;24.90;42.20;;;;;;5075487;28;20184;-55
2023/06/19 06:57:19;;;;;;;13.33;11.83;;;25.00;41.70;;;;;;5075833;28;20963;-56
2023/06/19 06:59:45;;;;;;;15.67;12.30;;;25.00;41.40;;;;;;5075255;28;20230;-57
2023/06/19 07:02:10;;;;;;;17.03;11.47;;;25.10;41.60;;;;;;5075827;28;20218;-58
2023/06/19 07:04:36;;;;;;;11.80;10.70;;;25.20;41.40;;;;;;5075434;28;20643;-54
2023/06/19 07:07:04;;;;;;;14.67;11.90;;;25.20;41.20;;;;;;5074128;28;20218;-57
2023/06/19 07:09:30;;;;;;;13.40;12.10;;;25.20;41.10;;;;;;5074967;28;20271;-54
2023/06/19 07:11:56;;;;;;;12.10;11.00;;;25.30;41.00;;;;;;5075180;28;20487;-58
2023/06/19 07:14:22;;;;;;;11.13;10.07;;;25.40;40.30;;;;;;5075440;28;20153;-55
2023/06/19 07:16:49;;;;;;;10.50;9.57;;;25.40;39.90;;;;;;5075435;28;20464;-55
2023/06/19 07:19:15;;;;;;;9.83;8.93;;;25.50;39.60;;;;;;5074886;28;20422;-55
2023/06/19 07:21:42;;;;;;;12.30;10.10;;;25.60;38.50;;;;;;5075040;28;20819;-54
2023/06/19 07:24:08;;;;;;;9.70;8.70;;;25.60;38.20;;;;;;5074922;28;20188;-54
2023/06/19 07:26:35;;;;;;;10.83;9.70;;;25.60;37.50;;;;;;5074968;28;20414;-54
2023/06/19 07:29:01;;;;;;;10.70;9.70;;;25.60;38.30;;;;;;5075081;28;20418;-57
2023/06/19 07:31:27;;;;;;;9.67;8.77;;;25.70;37.70;;;;;;5074915;28;20399;-54
2023/06/19 07:33:52;;;;;;;10.97;9.83;;;25.70;37.20;;;;;;5074856;28;20440;-54
2023/06/19 07:36:18;;;;;;;10.90;9.80;;;25.80;37.20;;;;;;5075083;28;20180;-59
2023/06/19 07:38:45;;;;;;;11.83;10.63;;;25.80;36.90;;;;;;5073325;28;20397;-58
2023/06/19 07:41:11;;;;;;;10.93;9.83;;;25.90;37.10;;;;;;5073446;28;20183;-54
2023/06/19 07:43:37;;;;;;;11.30;10.20;;;26.00;37.50;;;;;;5074006;28;20523;-56
2023/06/19 07:46:03;;;;;;;11.70;10.70;;;26.10;38.00;;;;;;5074829;28;20411;-55
2023/06/19 07:48:29;;;;;;;9.97;9.07;;;26.20;37.50;;;;;;5074542;28;20419;-54
2023/06/19 07:50:55;;;;;;;10.27;9.27;;;26.30;36.60;;;;;;5074335;28;20895;-55
2023/06/19 07:53:21;;;;;;;9.80;8.80;;;26.40;36.70;;;;;;5074465;28;20398;-55
2023/06/19 07:55:47;;;;;;;8.97;8.17;;;26.40;36.60;;;;;;5074715;28;20533;-57
2023/06/19 07:58:12;;;;;;;11.67;10.47;;;26.40;36.20;;;;;;5074329;28;20207;-58
2023/06/19 08:00:38;;;;;;;9.60;8.80;;;26.50;35.60;;;;;;5074166;28;20173;-59
2023/06/19 08:03:04;;;;;;;10.20;9.10;;;26.50;36.10;;;;;;5074257;28;20518;-57
2023/06/19 08:05:30;;;;;;;10.20;9.10;;;26.50;35.80;;;;;;5074267;28;20177;-57
2023/06/19 08:07:56;;;;;;;9.97;9.13;;;26.50;36.50;;;;;;5074177;28;20496;-59
2023/06/19 08:10:22;;;;;;;10.67;9.67;;;26.60;35.70;;;;;;5074194;28;20265;-55
2023/06/19 08:12:48;;;;;;;10.00;9.10;;;26.60;36.70;;;;;;5074203;28;21119;-55
2023/06/19 08:15:14;;;;;;;13.57;11.30;;;26.70;36.10;;;;;;5074116;28;20638;-58
2023/06/19 08:17:40;;;;;;;11.10;10.03;;;26.70;35.50;;;;;;5073952;28;20177;-59
2023/06/19 08:20:07;;;;;;;10.83;9.73;;;26.80;36.10;;;;;;5073766;28;20187;-55
2023/06/19 08:22:33;;;;;;;10.40;9.40;;;26.90;36.40;;;;;;5073768;28;20422;-55
2023/06/19 08:24:58;;;;;;;10.10;9.17;;;26.90;36.60;;;;;;5073993;28;20455;-57
2023/06/19 08:27:24;;;;;;;8.87;8.07;;;27.00;36.30;;;;;;5073797;28;20764;-56
2023/06/19 08:29:50;;;;;;;12.40;9.87;;;27.00;36.80;;;;;;5073423;28;20188;-56
2023/06/19 08:32:16;;;;;;;9.77;8.97;;;27.00;36.20;;;;;;5073722;28;20214;-58
2023/06/19 08:34:42;;;;;;;9.80;8.90;;;27.10;35.90;;;;;;5072444;28;20222;-56
2023/06/19 08:37:08;;;;;;;10.83;9.70;;;27.10;35.20;;;;;;5073768;28;20422;-55
2023/06/19 08:39:37;;;;;;;11.70;9.67;;;27.10;35.00;;;;;;5072668;28;20196;-57
2023/06/19 08:42:04;;;;;;;11.93;10.70;;;27.10;36.10;;;;;;5073807;28;20411;-59
2023/06/19 08:44:30;;;;;;;10.77;9.77;;;27.00;35.40;;;;;;5073662;28;20470;-56
2023/06/19 08:46:57;;;;;;;10.20;9.30;;;27.00;34.50;;;;;;5073740;28;20891;-55
2023/06/19 08:49:23;;;;;;;11.57;10.57;;;27.00;34.90;;;;;;5073190;28;20185;-58
2023/06/19 08:51:49;;;;;;;10.20;9.17;;;26.90;35.10;;;;;;5073538;28;20403;-60
2023/06/19 08:54:15;;;;;;;11.47;10.40;;;26.90;36.10;;;;;;5073497;28;20418;-56
2023/06/19 08:56:41;;;;;;;10.00;9.00;;;26.90;36.90;;;;;;5072145;28;20263;-58
2023/06/19 08:59:19;;;;;;;11.00;10.00;;;26.90;36.00;;;;;;5072974;28;20426;-59
2023/06/19 09:01:53;;;;;;;9.67;8.67;;;26.90;35.90;;;;;;5071951;28;20271;-57
2023/06/19 09:04:26;;;;;;;10.77;9.67;;;26.90;35.50;;;;;;5073000;28;20450;-55
2023/06/19 09:06:58;;;;;;;11.07;10.10;;;26.90;36.10;;;;;;5073098;28;20456;-57
2023/06/19 09:09:26;;;;;;;11.50;10.33;;;26.90;36.80;;;;;;5072957;28;20426;-54
2023/06/19 09:11:59;;;;;;;10.63;9.50;;;26.90;35.10;;;;;;5072787;28;20885;-56
2023/06/19 09:14:45;;;;;;;12.13;10.17;;;26.90;35.70;;;;;;5072919;28;20890;-57
2023/06/19 09:17:19;;;;;;;9.73;8.93;;;27.00;36.50;;;;;;5072908;28;20391;-57
2023/06/19 09:19:52;;;;;;;9.93;9.13;;;27.00;36.50;;;;;;5072716;28;20427;-54
2023/06/19 09:22:21;;;;;;;10.23;9.33;;;27.10;36.20;;;;;;5072754;28;20891;-60
2023/06/19 09:24:47;;;;;;;10.67;9.63;;;27.10;36.00;;;;;;5072599;28;20450;-59
2023/06/19 09:27:18;;;;;;;10.40;9.40;;;27.10;36.90;;;;;;5072596;28;20494;-54
2023/06/19 09:29:49;;;;;;;10.80;9.80;;;27.10;36.40;;;;;;5072530;28;20434;-58
2023/06/19 09:32:28;;;;;;;10.27;9.40;;;27.10;36.30;;;;;;5072559;28;20411;-54
2023/06/19 09:34:58;;;;;;;10.83;9.83;;;27.20;36.80;;;;;;5072839;28;20391;-56
2023/06/19 09:37:30;;;;;;;12.77;10.60;;;27.10;36.70;;;;;;5071227;28;20510;-54
2023/06/19 09:39:57;;;;;;;10.70;9.80;;;27.10;36.40;;;;;;5070846;28;20530;-53
2023/06/19 09:42:34;;;;;;;11.67;10.67;;;27.10;37.30;;;;;;5072613;28;20407;-55
2023/06/19 09:45:06;;;;;;;10.87;9.73;;;27.10;37.70;;;;;;5072273;28;20446;-58
2023/06/19 09:47:37;;;;;;;11.30;9.13;;;27.20;37.60;;;;;;5072229;28;20402;-53
2023/06/19 09:50:03;;;;;;;10.67;9.67;;;27.20;36.20;;;;;;5072124;28;20812;-58
2023/06/19 09:52:29;;;;;;;11.87;10.77;;;27.10;37.00;;;;;;5072237;28;20407;-57
2023/06/19 09:54:57;;;;;;;12.17;11.17;;;27.20;37.50;;;;;;5072216;28;20406;-56
2023/06/19 09:57:23;;;;;;;12.43;11.23;;;27.20;37.70;;;;;;5072159;28;20439;-55
2023/06/19 09:59:53;;;;;;;10.60;9.47;;;27.20;37.30;;;;;;5071993;28;20465;-58
2023/06/19 10:02:21;;;;;;;12.13;10.20;;;27.20;36.90;;;;;;5072382;28;20407;-56
2023/06/19 10:04:50;;;;;;;10.47;9.37;;;27.10;36.60;;;;;;5072044;28;20982;-56
2023/06/19 10:07:26;;;;;;;12.00;9.87;;;27.10;37.30;;;;;;5072265;28;20482;-57
2023/06/19 10:10:24;;;;;;;12.53;9.40;;;27.10;37.50;;;;;;5071781;28;21005;-55
2023/06/19 10:12:50;;;;;;;11.63;10.53;;;27.10;36.80;;;;;;5071346;28;20505;-57
2023/06/19 10:15:18;;;;;;;11.07;9.93;;;27.10;37.20;;;;;;5071967;28;20859;-55
2023/06/19 10:17:48;;;;;;;11.20;10.10;;;27.20;36.60;;;;;;5072130;28;20485;-60
2023/06/19 10:20:32;;;;;;;11.20;10.30;;;27.20;37.30;;;;;;5071862;28;20407;-59
2023/06/19 10:22:59;;;;;;;14.43;10.10;;;27.20;37.10;;;;;;5071909;28;20468;-58
2023/06/19 10:25:28;;;;;;;10.93;9.90;;;27.20;37.00;;;;;;5071831;28;20458;-55
2023/06/19 10:27:54;;;;;;;10.70;9.80;;;27.20;36.70;;;;;;5071787;28;20415;-55
2023/06/19 10:30:20;;;;;;;13.07;11.07;;;27.30;36.20;;;;;;5071861;28;20448;-59
2023/06/19 10:32:50;;;;;;;11.27;10.27;;;27.30;36.80;;;;;;5071745;28;20177;-56
2023/06/19 10:35:17;;;;;;;12.47;11.37;;;27.40;36.70;;;;;;5071992;28;20465;-56
2023/06/19 10:37:44;;;;;;;10.43;9.43;;;27.40;36.90;;;;;;5071506;28;20415;-55
2023/06/19 10:40:12;;;;;;;12.10;10.90;;;27.40;36.20;;;;;;5071488;28;20416;-54
2023/06/19 10:42:42;;;;;;;10.90;9.90;;;27.50;36.30;;;;;;5071645;28;20967;-57
2023/06/19 10:45:11;;;;;;;11.80;10.70;;;27.60;36.60;;;;;;5071581;28;21038;-56
2023/06/19 10:47:41;;;;;;;10.63;9.33;;;27.70;36.40;;;;;;5071543;28;20467;-55
2023/06/19 10:50:14;;;;;;;11.23;10.27;;;27.80;35.70;;;;;;5071519;28;20399;-55
2023/06/19 10:52:42;;;;;;;11.27;10.10;;;28.00;36.20;;;;;;5070454;28;20425;-57
2023/06/19 10:55:08;;;;;;;11.93;10.83;;;28.00;36.30;;;;;;5071575;28;20403;-55
2023/06/19 10:57:34;;;;;;;12.07;10.97;;;28.10;36.40;;;;;;5071525;28;20403;-55
2023/06/19 10:59:59;;;;;;;12.80;11.63;;;28.20;35.70;;;;;;5071655;28;20422;-59
2023/06/19 11:02:25;;;;;;;16.93;15.33;;;28.30;35.20;;;;;;5071547;28;20177;-55
2023/06/19 11:04:57;;;;;;;11.33;10.20;;;28.30;35.60;;;;;;5071463;28;20188;-55
2023/06/19 11:07:23;;;;;;;14.60;13.20;;;28.50;34.90;;;;;;5071784;28;20406;-58
2023/06/19 11:09:49;;;;;;;16.93;15.27;;;28.70;34.80;;;;;;5071431;28;20419;-55
2023/06/19 11:12:21;;;;;;;10.83;9.73;;;28.90;34.80;;;;;;5071435;28;20193;-54
2023/06/19 11:14:50;;;;;;;11.07;10.00;;;29.00;34.60;;;;;;5071384;28;20403;-56
2023/06/19 11:17:20;;;;;;;13.00;11.80;;;29.20;34.30;;;;;;5071332;28;20411;-55
2023/06/19 11:19:46;;;;;;;11.20;10.20;;;29.30;34.50;;;;;;5072822;28;20833;-58
2023/06/19 11:22:12;;;;;;;10.07;9.07;;;29.50;33.50;;;;;;5073893;28;20407;-55
2023/06/19 11:24:45;;;;;;;19.60;17.60;;;29.60;34.20;;;;;;5075081;28;20505;-56
2023/06/19 11:27:27;;;;;;;12.23;10.97;;;29.70;33.10;;;;;;5074956;28;20957;-56
2023/06/19 11:29:59;;;;;;;16.70;14.80;;;29.90;32.60;;;;;;5074605;28;20451;-55
2023/06/19 11:32:32;;;;;;;10.77;9.63;;;30.10;33.20;;;;;;5075070;28;20399;-55
2023/06/19 11:35:07;;;;;;;11.70;9.90;;;30.20;32.10;;;;;;5075085;28;20391;-57
2023/06/19 11:37:33;;;;;;;10.63;9.70;;;30.40;32.50;;;;;;5074571;28;20426;-53
2023/06/19 11:39:59;;;;;;;11.20;10.20;;;30.60;32.90;;;;;;5074518;28;20418;-58
2023/06/19 11:42:26;;;;;;;9.97;9.07;;;30.80;31.40;;;;;;5074870;28;20411;-57
2023/06/19 11:45:03;;;;;;;10.70;9.80;;;30.80;30.60;;;;;;5074567;28;20482;-55
2023/06/19 11:47:33;;;;;;;10.57;9.60;;;30.90;30.60;;;;;;5074857;28;20444;-58
2023/06/19 11:50:00;;;;;;;10.97;9.87;;;30.90;30.00;;;;;;5074341;28;20407;-56
2023/06/19 11:52:26;;;;;;;9.70;8.83;;;31.00;30.80;;;;;;5074551;28;20408;-55
2023/06/19 11:54:51;;;;;;;9.93;9.03;;;31.10;30.40;;;;;;5074370;28;20402;-57
2023/06/19 11:57:17;;;;;;;10.70;9.80;;;31.20;31.40;;;;;;5074361;28;20500;-56
2023/06/19 11:59:43;;;;;;;10.80;9.63;;;31.40;30.50;;;;;;5074079;28;20280;-57
2023/06/19 12:02:09;;;;;;;11.60;10.60;;;31.50;29.80;;;;;;5074354;28;20182;-56
2023/06/19 12:04:35;;;;;;;10.33;9.53;;;31.50;30.50;;;;;;5074292;28;20295;-57
2023/06/19 12:07:02;;;;;;;11.03;9.93;;;31.50;30.40;;;;;;5074346;28;21038;-55
2023/06/19 12:09:28;;;;;;;10.37;9.43;;;31.50;29.90;;;;;;5072966;28;20204;-55
2023/06/19 12:11:54;;;;;;;9.30;8.50;;;31.60;29.00;;;;;;5073937;28;20402;-55
2023/06/19 12:14:20;;;;;;;9.13;8.23;;;31.60;28.90;;;;;;5074370;28;20247;-55
2023/06/19 12:16:46;;;;;;;9.80;8.90;;;31.60;28.20;;;;;;5074001;28;20212;-57
2023/06/19 12:19:13;;;;;;;9.37;8.63;;;31.70;28.20;;;;;;5073715;28;20428;-57
2023/06/19 12:21:38;;;;;;;9.40;8.43;;;31.80;28.20;;;;;;5073891;28;20410;-56
2023/06/19 12:24:05;;;;;;;9.80;8.90;;;31.90;27.40;;;;;;5073994;28;20441;-56
2023/06/19 12:26:36;;;;;;;8.27;7.57;;;32.00;27.00;;;;;;5074093;28;20258;-56
2023/06/19 12:29:03;;;;;;;10.17;9.27;;;32.10;27.70;;;;;;5073699;28;20430;-55
2023/06/19 12:31:30;;;;;;;9.47;8.60;;;32.10;27.60;;;;;;5073479;28;20813;-55